Time;durP1;ratioP1;P1;durP2;ratioP2;P2;SDS_P1;SDS_P2;PMS_P1;PMS_P2;Temp;Humidity;BMP_temperature;BMP_pressure;BME280_temperature;BME280_humidity;BME280_pressure;Samples;Min_cycle;Max_cycle;Signal;HPM_P1;HPM_P2
2022/12/21 00:01:16;;;;;;;43.42;25.70;;;;;;;9.81;100.00;101012.34;4977491;28;20085;-68
2022/12/21 00:03:44;;;;;;;43.33;23.48;;;;;;;9.72;100.00;101008.75;4973510;28;20053;-68
2022/12/21 00:06:11;;;;;;;38.53;23.70;;;;;;;9.77;100.00;101013.59;4970483;28;20057;-68
2022/12/21 00:08:45;;;;;;;42.85;24.13;;;;;;;9.78;100.00;101013.47;4986159;28;20057;-68
2022/12/21 00:11:12;;;;;;;43.65;24.35;;;;;;;9.72;100.00;101018.41;4985127;28;20137;-67
2022/12/21 00:13:40;;;;;;;48.25;23.75;;;;;;;9.76;100.00;101017.16;4983871;28;20054;-68
2022/12/21 00:16:13;;;;;;;42.28;23.58;;;;;;;9.81;100.00;101022.84;4976769;28;20057;-68
2022/12/21 00:18:41;;;;;;;41.63;24.60;;;;;;;9.76;100.00;101009.31;4984826;28;20080;-67
2022/12/21 00:21:14;;;;;;;45.67;25.05;;;;;;;9.78;100.00;101015.22;4982166;28;20058;-67
2022/12/21 00:23:41;;;;;;;44.25;23.80;;;;;;;9.75;100.00;101020.75;4990510;28;20501;-68
2022/12/21 00:26:10;;;;;;;46.90;25.05;;;;;;;9.74;100.00;101022.56;4982850;28;20058;-68
2022/12/21 00:28:36;;;;;;;50.28;25.83;;;;;;;9.71;100.00;101017.59;4989241;28;20062;-68
2022/12/21 00:31:11;;;;;;;49.60;25.92;;;;;;;9.73;100.00;101018.28;4978632;28;20064;-68
2022/12/21 00:33:39;;;;;;;44.08;24.48;;;;;;;9.70;100.00;101019.38;4987862;28;20054;-68
2022/12/21 00:36:07;;;;;;;42.73;23.83;;;;;;;9.73;100.00;101014.84;4989543;28;20046;-68
2022/12/21 00:38:34;;;;;;;47.63;25.33;;;;;;;9.71;100.00;101017.59;4982271;28;20135;-67
2022/12/21 00:41:04;;;;;;;47.03;25.33;;;;;;;9.74;100.00;101009.47;4986821;28;20766;-68
2022/12/21 00:43:32;;;;;;;48.90;25.15;;;;;;;9.69;100.00;101015.09;4980463;28;20431;-67
2022/12/21 00:45:59;;;;;;;49.17;25.88;;;;;;;9.65;100.00;101003.22;4986015;28;20046;-68
2022/12/21 00:48:27;;;;;;;49.38;24.65;;;;;;;9.68;100.00;101012.59;4991757;28;20153;-67
2022/12/21 00:51:17;;;;;;;49.95;25.83;;;;;;;9.66;100.00;101023.25;4988286;28;20047;-66
2022/12/21 00:53:44;;;;;;;52.10;26.65;;;;;;;9.60;100.00;101021.13;4975842;28;20054;-66
2022/12/21 00:56:11;;;;;;;48.40;24.35;;;;;;;9.60;100.00;101025.56;4968055;28;20054;-66
2022/12/21 00:58:38;;;;;;;57.75;27.63;;;;;;;9.52;100.00;101023.59;4988397;28;20061;-66
2022/12/21 01:01:14;;;;;;;51.33;24.80;;;;;;;9.50;100.00;101022.91;4984685;28;20418;-66
2022/12/21 01:03:40;;;;;;;54.25;26.10;;;;;;;9.43;100.00;101025.25;4987482;28;20128;-66
2022/12/21 01:06:12;;;;;;;58.38;26.33;;;;;;;9.47;100.00;101026.63;4982411;28;20054;-66
2022/12/21 01:08:39;;;;;;;58.00;25.92;;;;;;;9.37;100.00;101033.66;4991894;28;20077;-66
2022/12/21 01:11:05;;;;;;;50.85;24.95;;;;;;;9.40;100.00;101032.53;4981519;28;20054;-66
2022/12/21 01:13:32;;;;;;;56.10;26.42;;;;;;;9.42;100.00;101036.66;4980414;28;20105;-66
2022/12/21 01:15:58;;;;;;;51.50;25.77;;;;;;;9.38;100.00;101044.94;4986160;28;20046;-66
2022/12/21 01:18:25;;;;;;;54.55;25.58;;;;;;;9.42;100.00;101047.16;4976905;28;20050;-66
2022/12/21 01:20:54;;;;;;;51.90;25.20;;;;;;;9.48;100.00;101043.16;4983364;28;20117;-66
2022/12/21 01:23:21;;;;;;;;;;;;;;;9.56;100.00;101043.31;4975844;28;20049;-66
2022/12/21 01:25:48;;;;;;;50.08;24.58;;;;;;;9.55;100.00;101043.47;4980055;28;19925;-66
2022/12/21 01:28:15;;;;;;;46.90;25.35;;;;;;;9.59;100.00;101044.88;4991787;28;20053;-66
2022/12/21 01:30:41;;;;;;;53.35;24.95;;;;;;;9.57;100.00;101052.84;4988696;28;20133;-66
2022/12/21 01:33:13;;;;;;;53.03;25.27;;;;;;;9.56;100.00;101056.41;4987673;28;20086;-66
2022/12/21 01:35:40;;;;;;;57.30;25.70;;;;;;;9.51;100.00;101045.53;4982202;28;20124;-67
2022/12/21 01:38:07;;;;;;;54.67;25.30;;;;;;;9.52;100.00;101039.31;4984527;28;20740;-68
2022/12/21 01:40:34;;;;;;;50.33;25.27;;;;;;;9.50;100.00;101041.25;4981273;28;20060;-67
2022/12/21 01:43:01;;;;;;;50.70;24.88;;;;;;;9.48;100.00;101054.47;4988166;28;20054;-67
2022/12/21 01:45:30;;;;;;;55.15;26.88;;;;;;;9.44;100.00;101063.53;4986588;28;20077;-67
2022/12/21 01:47:59;;;;;;;50.83;25.92;;;;;;;9.48;100.00;101062.31;4988319;28;20292;-67
2022/12/21 01:50:45;;;;;;;52.55;25.55;;;;;;;9.49;100.00;101069.22;4983230;28;20062;-67
2022/12/21 01:53:18;;;;;;;55.08;26.83;;;;;;;9.47;100.00;101076.38;4983468;28;20132;-67
2022/12/21 01:55:49;;;;;;;59.30;27.95;;;;;;;9.38;100.00;101065.88;4997025;28;20050;-67
2022/12/21 01:58:18;;;;;;;56.60;26.17;;;;;;;9.36;100.00;101066.00;4980717;28;20050;-66
2022/12/21 02:00:44;;;;;;;54.55;26.13;;;;;;;9.28;100.00;101065.84;4987153;28;20058;-67
2022/12/21 02:03:17;;;;;;;53.67;24.05;;;;;;;9.34;100.00;101067.09;4980751;28;20050;-66
2022/12/21 02:06:06;;;;;;;54.08;25.60;;;;;;;9.30;100.00;101062.13;4982202;28;20051;-66
2022/12/21 02:08:34;;;;;;;54.25;24.52;;;;;;;9.28;100.00;101058.81;4981153;28;20077;-67
2022/12/21 02:11:02;;;;;;;51.85;23.25;;;;;;;9.35;100.00;101066.97;4993675;28;20120;-65
2022/12/21 02:13:29;;;;;;;52.38;24.90;;;;;;;9.28;100.00;101063.22;4989077;28;20053;-68
2022/12/21 02:15:58;;;;;;;51.28;23.45;;;;;;;9.39;100.00;101062.28;4980749;28;20419;-67
2022/12/21 02:19:02;;;;;;;51.20;24.50;;;;;;;9.40;100.00;101051.69;4985736;28;20042;-67
2022/12/21 02:21:32;;;;;;;48.90;24.33;;;;;;;9.39;100.00;101042.19;4979145;28;20054;-67
2022/12/21 02:24:35;;;;;;;49.20;23.27;;;;;;;9.44;100.00;101045.22;4970671;28;20054;-67
2022/12/21 02:27:10;;;;;;;52.45;24.08;;;;;;;9.46;100.00;101035.44;4984569;28;20054;-68
2022/12/21 02:29:55;;;;;;;50.30;22.77;;;;;;;9.47;100.00;101042.34;4981618;28;20466;-68
2022/12/21 02:32:51;;;;;;;50.30;24.73;;;;;;;9.46;100.00;101042.47;4973397;28;20046;-68
2022/12/21 02:35:33;;;;;;;45.65;23.48;;;;;;;9.37;100.00;101038.88;4983602;28;20042;-67
2022/12/21 02:38:19;;;;;;;46.95;23.67;;;;;;;9.33;100.00;101034.88;4979179;28;20435;-67
2022/12/21 02:40:45;;;;;;;47.05;23.98;;;;;;;9.20;100.00;101031.66;4992103;28;20056;-68
2022/12/21 02:46:22;;;;;;;47.90;22.77;;;;;;;9.20;100.00;101039.50;4976668;28;20710;-67
2022/12/21 02:48:56;;;;;;;49.00;24.85;;;;;;;9.14;100.00;101033.00;4985559;28;20445;-68
2022/12/21 02:51:34;;;;;;;45.47;22.70;;;;;;;9.17;100.00;101031.91;4989573;28;20450;-67
2022/12/21 02:54:01;;;;;;;50.95;24.05;;;;;;;9.16;100.00;101032.88;4979102;28;20057;-68
2022/12/21 02:56:27;;;;;;;53.15;23.90;;;;;;;9.13;100.00;101027.91;4983614;28;20058;-68
2022/12/21 02:58:53;;;;;;;50.17;23.73;;;;;;;9.13;100.00;101028.72;4975597;28;20042;-68
2022/12/21 03:01:38;;;;;;;46.05;23.30;;;;;;;9.20;100.00;101019.38;4977956;28;20045;-68
2022/12/21 03:04:52;;;;;;;48.40;23.75;;;;;;;9.21;100.00;101023.69;4985547;28;20124;-68
2022/12/21 03:07:24;;;;;;;50.72;23.05;;;;;;;9.11;100.00;101025.41;4931309;28;20061;-67
2022/12/21 03:10:18;;;;;;;48.33;23.02;;;;;;;9.13;100.00;101035.75;4984713;28;20050;-67
2022/12/21 03:12:56;;;;;;;45.08;23.33;;;;;;;9.14;100.00;101033.00;4962935;28;20054;-67
2022/12/21 03:15:33;;;;;;;;;;;;;;;9.14;100.00;101038.25;4980891;28;20057;-67
2022/12/21 03:18:21;;;;;;;44.92;22.10;;;;;;;9.11;100.00;101028.03;4970196;28;20469;-67
2022/12/21 03:21:09;;;;;;;42.75;22.48;;;;;;;9.15;100.00;101028.59;4983559;28;20433;-68
2022/12/21 03:23:56;;;;;;;45.22;23.13;;;;;;;9.17;100.00;101029.28;4979857;28;20112;-69
2022/12/21 03:26:59;;;;;;;47.78;24.23;;;;;;;9.16;100.00;101027.66;4984718;28;20046;-67
2022/12/21 03:29:34;;;;;;;45.75;22.60;;;;;;;9.17;100.00;101021.44;4973712;28;20128;-68
2022/12/21 03:32:15;;;;;;;48.90;23.80;;;;;;;9.21;100.00;101028.06;4992021;28;20426;-68
2022/12/21 03:34:48;;;;;;;45.75;22.40;;;;;;;9.21;100.00;101023.69;4979273;28;20539;-68
2022/12/21 03:37:18;;;;;;;48.65;22.23;;;;;;;9.19;100.00;101017.75;4984792;28;20050;-68
2022/12/21 03:39:52;;;;;;;49.58;23.15;;;;;;;9.14;100.00;101019.09;4976831;28;20050;-66
2022/12/21 03:42:23;;;;;;;46.22;23.27;;;;;;;9.11;100.00;101020.16;4977175;28;20121;-65
2022/12/21 03:44:55;;;;;;;54.85;24.90;;;;;;;9.10;100.00;101021.97;4990689;28;20042;-65
2022/12/21 03:47:28;;;;;;;54.28;23.70;;;;;;;9.08;100.00;101017.84;4977105;28;20093;-65
2022/12/21 03:50:01;;;;;;;47.10;23.88;;;;;;;9.03;100.00;101005.13;4983579;28;20054;-65
2022/12/21 03:52:39;;;;;;;54.05;24.60;;;;;;;9.04;100.00;101008.59;4978776;28;20066;-66
2022/12/21 03:55:08;;;;;;;52.90;24.73;;;;;;;9.05;100.00;101013.66;4980660;28;20065;-65
2022/12/21 03:57:35;;;;;;;53.22;24.05;;;;;;;9.07;100.00;101008.31;4979156;28;20053;-66
2022/12/21 04:00:04;;;;;;;47.65;23.70;;;;;;;9.10;100.00;101003.66;4985300;28;20076;-65
2022/12/21 04:02:38;;;;;;;50.85;24.02;;;;;;;9.11;100.00;101014.94;4985065;28;20061;-65
2022/12/21 04:05:15;;;;;;;49.47;23.73;;;;;;;9.13;100.00;101012.19;4985818;28;20054;-64
2022/12/21 04:07:43;;;;;;;50.40;24.08;;;;;;;9.12;100.00;101013.16;4980891;28;20108;-65
2022/12/21 04:10:14;;;;;;;53.00;23.35;;;;;;;9.16;100.00;101018.00;4974927;28;20840;-65
2022/12/21 04:12:40;;;;;;;49.28;24.08;;;;;;;9.06;100.00;101017.13;4980347;28;20487;-65
2022/12/21 04:15:16;;;;;;;48.42;23.48;;;;;;;9.16;100.00;101012.75;4976526;28;20058;-66
2022/12/21 04:17:45;;;;;;;49.80;23.50;;;;;;;9.15;100.00;100991.94;4983674;28;20057;-65
2022/12/21 04:20:14;;;;;;;;;;;;;;;9.15;100.00;100986.72;4972636;28;20522;-65
2022/12/21 04:28:24;;;;;;;52.13;24.10;;;;;;;9.14;100.00;100991.13;4987852;28;20054;-65
2022/12/21 04:31:10;;;;;;;46.55;22.25;;;;;;;9.06;100.00;100999.66;4980604;28;20050;-66
2022/12/21 04:33:36;;;;;;;46.13;23.17;;;;;;;9.05;100.00;101003.22;4984551;28;20377;-66
2022/12/21 04:38:48;;;;;;;46.10;22.83;;;;;;;9.01;100.00;100999.19;4971145;28;20419;-65
2022/12/21 04:41:15;;;;;;;52.92;23.63;;;;;;;8.96;100.00;101000.56;4989565;28;20057;-65
2022/12/21 04:43:41;;;;;;;57.28;24.13;;;;;;;8.99;100.00;100998.50;4980844;28;20113;-65
2022/12/21 04:46:11;;;;;;;49.08;23.83;;;;;;;9.03;100.00;101004.31;4981964;28;20046;-65
2022/12/21 04:48:39;;;;;;;50.30;23.33;;;;;;;8.89;100.00;101002.88;4981707;28;20468;-66
2022/12/21 04:51:07;;;;;;;46.97;22.73;;;;;;;8.95;100.00;101001.53;4979867;28;20101;-65
2022/12/21 04:53:34;;;;;;;;;;;;;;;8.96;100.00;101000.56;4983198;28;20158;-65
2022/12/21 04:56:00;;;;;;;43.53;21.90;;;;;;;8.89;100.00;101014.16;4981927;28;19932;-65
2022/12/21 04:58:27;;;;;;;54.95;23.08;;;;;;;8.78;100.00;101010.78;4982083;28;20058;-64
2022/12/21 05:00:53;;;;;;;47.28;22.20;;;;;;;8.77;100.00;101014.38;4977185;28;20495;-64
2022/12/21 05:03:20;;;;;;;52.50;24.92;;;;;;;8.73;100.00;101005.97;4983674;28;20117;-64
2022/12/21 05:05:47;;;;;;;55.00;24.17;;;;;;;8.72;100.00;101001.69;4979403;28;20112;-65
2022/12/21 05:08:13;;;;;;;61.10;27.00;;;;;;;8.62;100.00;100999.00;4987582;28;20058;-65
2022/12/21 05:10:48;;;;;;;56.15;25.02;;;;;;;8.62;100.00;100999.00;4990888;28;20137;-65
2022/12/21 05:13:14;;;;;;;47.17;23.33;;;;;;;8.64;100.00;100996.28;4977816;28;20058;-65
2022/12/21 05:15:40;;;;;;;52.70;24.88;;;;;;;8.57;100.00;100995.16;4992611;28;20054;-66
2022/12/21 05:18:07;;;;;;;54.65;24.98;;;;;;;8.54;100.00;100996.22;4980927;28;20054;-65
2022/12/21 05:20:33;;;;;;;51.40;25.30;;;;;;;8.52;100.00;101001.56;4984227;28;20430;-65
2022/12/21 05:23:00;;;;;;;58.30;23.98;;;;;;;8.57;100.00;101003.00;4983794;28;20049;-65
2022/12/21 05:25:26;;;;;;;52.90;25.65;;;;;;;8.55;100.00;100999.69;4989509;28;20046;-66
2022/12/21 05:27:53;;;;;;;58.42;25.75;;;;;;;8.54;100.00;100991.00;4987012;28;20194;-65
2022/12/21 05:30:19;;;;;;;56.72;26.83;;;;;;;8.55;100.00;100991.84;4985851;28;20046;-65
2022/12/21 05:32:46;;;;;;;51.97;24.42;;;;;;;8.54;100.00;100996.22;4964582;28;20102;-65
2022/12/21 05:35:12;;;;;;;58.22;26.05;;;;;;;8.52;100.00;100990.28;4977864;28;20054;-66
2022/12/21 05:37:42;;;;;;;51.92;24.75;;;;;;;8.54;100.00;100993.59;4988895;28;20557;-65
2022/12/21 05:40:09;;;;;;;56.28;27.55;;;;;;;8.56;100.00;100996.09;4983739;28;20061;-65
2022/12/21 05:42:35;;;;;;;57.88;26.73;;;;;;;8.52;100.00;100985.06;4975123;28;20050;-64
2022/12/21 05:45:02;;;;;;;54.50;25.33;;;;;;;8.58;100.00;100981.09;4991888;28;20050;-65
2022/12/21 05:47:28;;;;;;;58.65;25.95;;;;;;;8.56;100.00;100986.47;4981390;28;20056;-65
2022/12/21 05:49:55;;;;;;;61.13;27.38;;;;;;;8.55;100.00;100990.03;4991988;28;20053;-65
2022/12/21 05:52:21;;;;;;;62.85;27.55;;;;;;;8.54;100.00;100977.91;4982734;28;20659;-66
2022/12/21 05:54:47;;;;;;;60.00;26.08;;;;;;;8.52;100.00;100988.50;4987878;28;20061;-66
2022/12/21 05:57:14;;;;;;;57.45;26.48;;;;;;;8.49;100.00;100975.69;4987636;28;20057;-65
2022/12/21 05:59:40;;;;;;;59.85;29.00;;;;;;;8.50;100.00;100976.53;4977652;28;20536;-65
2022/12/21 06:02:06;;;;;;;61.92;27.90;;;;;;;8.53;100.00;100973.66;4987294;28;20054;-67
2022/12/21 06:04:33;;;;;;;56.28;27.42;;;;;;;8.47;100.00;100976.78;4982824;28;20054;-65
2022/12/21 06:07:00;;;;;;;65.03;27.05;;;;;;;8.47;100.00;100975.00;4986944;28;20483;-65
2022/12/21 06:09:26;;;;;;;51.85;25.02;;;;;;;8.45;100.00;100974.31;4980228;28;20050;-66
2022/12/21 06:11:53;;;;;;;58.08;27.83;;;;;;;8.44;100.00;100980.47;4993414;28;20518;-65
2022/12/21 06:14:19;;;;;;;60.70;26.92;;;;;;;8.41;100.00;100972.03;4977926;28;20046;-65
2022/12/21 06:16:46;;;;;;;64.78;27.48;;;;;;;8.40;100.00;100968.59;4980697;28;20725;-65
2022/12/21 06:19:12;;;;;;;56.78;26.73;;;;;;;8.39;100.00;100964.34;4988129;28;20061;-66
2022/12/21 06:21:38;;;;;;;54.88;27.88;;;;;;;8.43;100.00;100960.53;4986279;28;20507;-65
2022/12/21 06:24:05;;;;;;;63.42;26.73;;;;;;;8.44;100.00;100954.34;4986741;28;20069;-65
2022/12/21 06:26:32;;;;;;;53.20;26.27;;;;;;;8.46;100.00;100962.06;4980587;28;20391;-65
2022/12/21 06:28:58;;;;;;;59.50;26.92;;;;;;;8.44;100.00;100963.97;4987187;28;20069;-66
2022/12/21 06:31:24;;;;;;;60.08;26.40;;;;;;;8.43;100.00;100962.31;4984992;28;20042;-65
2022/12/21 06:33:53;;;;;;;53.25;25.73;;;;;;;8.46;100.00;100962.88;4980236;28;20590;-65
2022/12/21 06:36:19;;;;;;;59.55;26.88;;;;;;;8.47;100.00;100967.16;4978498;28;20062;-65
2022/12/21 06:38:46;;;;;;;54.88;26.60;;;;;;;8.48;100.00;100973.22;4983185;28;20054;-65
2022/12/21 06:41:13;;;;;;;56.05;26.38;;;;;;;8.53;100.00;100971.03;4989617;28;20050;-65
2022/12/21 06:43:41;;;;;;;59.63;27.13;;;;;;;8.55;100.00;100970.94;4979431;28;20046;-65
2022/12/21 06:46:10;;;;;;;53.25;26.48;;;;;;;8.55;100.00;100976.16;4983391;28;20046;-65
2022/12/21 06:48:37;;;;;;;53.03;26.92;;;;;;;8.52;100.00;100966.75;4986123;28;20081;-66
2022/12/21 06:51:07;;;;;;;54.88;26.23;;;;;;;8.52;100.00;100969.38;4975692;28;20050;-64
2022/12/21 06:53:36;;;;;;;52.78;25.73;;;;;;;8.48;100.00;100970.59;4985720;28;20060;-64
2022/12/21 06:56:08;;;;;;;56.33;26.73;;;;;;;8.41;100.00;100982.47;4978228;28;20101;-65
2022/12/21 06:58:45;;;;;;;57.42;27.23;;;;;;;8.36;100.00;100984.66;4981496;28;20502;-64
2022/12/21 07:01:14;;;;;;;57.10;27.13;;;;;;;8.30;100.00;100978.16;4982031;28;20357;-64
2022/12/21 07:03:41;;;;;;;53.53;25.95;;;;;;;8.25;100.00;100981.16;4982140;28;20038;-65
2022/12/21 07:06:11;;;;;;;53.05;25.98;;;;;;;8.25;100.00;100991.63;4992916;28;20134;-65
2022/12/21 07:08:38;;;;;;;55.73;24.63;;;;;;;8.24;100.00;100995.19;4979877;28;20054;-65
2022/12/21 07:11:10;;;;;;;59.42;26.85;;;;;;;8.32;100.00;101002.38;4977443;28;20306;-65
2022/12/21 07:13:38;;;;;;;53.95;26.15;;;;;;;8.31;100.00;100998.09;4980452;28;20046;-65
2022/12/21 07:16:05;;;;;;;57.75;25.58;;;;;;;8.32;100.00;101000.59;4983148;28;20101;-66
2022/12/21 07:18:32;;;;;;;49.47;24.02;;;;;;;8.32;100.00;101005.81;4980357;28;20050;-65
2022/12/21 07:21:02;;;;;;;53.25;25.35;;;;;;;8.30;100.00;101002.50;4983039;28;20139;-65
2022/12/21 07:23:34;;;;;;;49.72;24.90;;;;;;;8.28;100.00;101006.22;4980780;28;20145;-65
2022/12/21 07:26:04;;;;;;;49.10;23.80;;;;;;;8.31;100.00;101000.72;4970003;28;20056;-65
2022/12/21 07:28:34;;;;;;;47.80;23.60;;;;;;;8.26;100.00;100995.88;4984567;28;20107;-65
2022/12/21 07:31:03;;;;;;;49.08;24.23;;;;;;;8.32;100.00;100990.13;4988805;28;20061;-65
2022/12/21 07:33:29;;;;;;;52.15;24.55;;;;;;;8.30;100.00;100992.06;4985403;28;20559;-65
2022/12/21 07:36:00;;;;;;;44.58;21.98;;;;;;;8.32;100.00;100991.94;4977140;28;20050;-64
2022/12/21 07:38:32;;;;;;;41.97;21.38;;;;;;;8.26;100.00;101005.50;4973997;28;20574;-64
2022/12/21 07:41:00;;;;;;;46.13;22.48;;;;;;;8.32;100.00;101007.63;4978612;28;20050;-66
2022/12/21 07:43:28;;;;;;;40.95;22.27;;;;;;;8.32;100.00;101012.84;4984765;28;20089;-65
2022/12/21 07:45:54;;;;;;;41.40;21.05;;;;;;;8.35;100.00;101001.28;4985463;28;20050;-65
2022/12/21 07:48:21;;;;;;;43.33;21.15;;;;;;;8.35;100.00;101015.22;4980867;28;20154;-64
2022/12/21 07:50:55;;;;;;;45.63;21.75;;;;;;;8.30;100.00;101005.13;4974965;28;20053;-65
2022/12/21 07:53:22;;;;;;;41.05;20.73;;;;;;;8.32;100.00;101011.03;4981178;28;20096;-65
2022/12/21 07:55:49;;;;;;;39.83;19.83;;;;;;;8.28;100.00;101004.41;4989812;28;20100;-63
2022/12/21 07:58:15;;;;;;;43.70;20.98;;;;;;;8.28;100.00;101012.25;4988541;28;20776;-64
2022/12/21 08:00:41;;;;;;;41.22;20.50;;;;;;;8.25;100.00;101020.38;4978712;28;20050;-66
2022/12/21 08:03:08;;;;;;;40.13;20.38;;;;;;;8.25;100.00;101022.97;4993625;28;20054;-64
2022/12/21 08:05:35;;;;;;;36.10;18.75;;;;;;;8.26;100.00;101029.84;4971700;28;20042;-65
2022/12/21 08:08:02;;;;;;;31.60;18.73;;;;;;;8.29;100.00;101041.81;4984118;28;20042;-65
2022/12/21 08:10:29;;;;;;;33.38;16.65;;;;;;;8.31;100.00;101051.22;4979152;28;20148;-65
2022/12/21 08:12:56;;;;;;;35.03;18.60;;;;;;;8.23;100.00;101045.81;4988009;28;20088;-65
2022/12/21 08:15:22;;;;;;;37.60;19.35;;;;;;;8.21;100.00;101052.09;4990459;28;20418;-66
2022/12/21 08:17:51;;;;;;;35.88;19.08;;;;;;;8.19;100.00;101048.78;4974964;28;20138;-64
2022/12/21 08:20:18;;;;;;;;;;;;;;;8.22;100.00;101043.31;4976484;28;20057;-65
2022/12/21 08:22:44;;;;;;;38.72;18.80;;;;;;;8.13;100.00;101042.25;4986993;28;19932;-66
2022/12/21 08:25:11;;;;;;;33.03;16.60;;;;;;;8.09;100.00;101044.28;4981965;28;20490;-65
2022/12/21 08:27:39;;;;;;;33.00;16.05;;;;;;;8.12;100.00;101048.44;4981393;28;20058;-65
2022/12/21 08:30:06;;;;;;;30.60;15.38;;;;;;;8.02;100.00;101031.88;4992501;28;20057;-65
2022/12/21 08:32:32;;;;;;;32.65;16.63;;;;;;;8.06;100.00;101033.28;4981051;28;20515;-64
2022/12/21 08:34:59;;;;;;;30.67;16.30;;;;;;;7.98;100.00;101033.91;4973108;28;20054;-65
2022/12/21 08:37:25;;;;;;;28.75;16.15;;;;;;;7.96;100.00;101027.97;4982533;28;20073;-64
2022/12/21 08:39:51;;;;;;;27.77;15.43;;;;;;;8.02;100.00;101026.66;4982613;28;20455;-65
2022/12/21 08:42:18;;;;;;;27.35;14.57;;;;;;;8.05;100.00;101034.22;4987729;28;20058;-66
2022/12/21 08:44:44;;;;;;;29.35;15.85;;;;;;;8.04;100.00;101035.19;4978874;28;20491;-65
2022/12/21 08:47:11;;;;;;;32.47;15.18;;;;;;;7.99;100.00;101046.00;4985887;28;20056;-65
2022/12/21 08:49:37;;;;;;;30.77;14.63;;;;;;;8.02;100.00;101040.53;4987131;28;20430;-66
2022/12/21 08:52:04;;;;;;;31.25;14.75;;;;;;;8.05;100.00;101037.66;4985635;28;20066;-65
2022/12/21 08:54:30;;;;;;;29.75;15.20;;;;;;;8.03;100.00;101031.72;4989346;28;20814;-64
2022/12/21 08:56:57;;;;;;;22.63;13.65;;;;;;;8.03;100.00;101042.19;4986490;28;20053;-65
2022/12/21 08:59:23;;;;;;;27.52;14.98;;;;;;;7.99;100.00;101042.56;4986165;28;20106;-66
2022/12/21 09:01:51;;;;;;;24.85;13.48;;;;;;;8.05;100.00;101032.44;4981229;28;20164;-65
2022/12/21 09:04:18;;;;;;;44.08;15.25;;;;;;;8.06;100.00;101036.72;4986785;28;20104;-65
2022/12/21 09:06:45;;;;;;;24.60;14.40;;;;;;;8.09;100.00;101039.06;4990531;28;20054;-65
2022/12/21 09:09:11;;;;;;;25.88;13.05;;;;;;;8.05;100.00;101035.03;4976988;28;20738;-65
2022/12/21 09:11:38;;;;;;;27.58;13.00;;;;;;;8.08;100.00;101041.81;4991996;28;20427;-64
2022/12/21 09:14:19;;;;;;;23.23;13.98;;;;;;;8.03;100.00;101051.81;4965495;28;20137;-65
2022/12/21 09:16:45;;;;;;;39.45;15.68;;;;;;;8.01;100.00;101051.09;4984835;28;20111;-65
2022/12/21 09:19:12;;;;;;;27.60;14.13;;;;;;;8.08;100.00;101057.50;4979933;28;20054;-65
2022/12/21 09:21:38;;;;;;;29.67;15.07;;;;;;;8.10;100.00;101063.44;4992060;28;20054;-67
2022/12/21 09:24:05;;;;;;;27.75;12.88;;;;;;;8.11;100.00;101050.25;4989052;28;20053;-65
2022/12/21 09:26:32;;;;;;;34.70;15.40;;;;;;;8.06;100.00;101051.56;4970903;28;20065;-65
2022/12/21 09:28:58;;;;;;;26.23;13.65;;;;;;;8.02;100.00;101037.91;4958629;28;20060;-65
2022/12/21 09:31:24;;;;;;;26.08;13.77;;;;;;;8.03;100.00;101034.34;4981177;28;20154;-65
2022/12/21 09:33:55;;;;;;;32.80;13.68;;;;;;;8.06;100.00;101041.94;4978099;28;20047;-65
2022/12/21 09:36:24;;;;;;;26.55;13.98;;;;;;;8.12;100.00;101041.44;4981044;28;20050;-66
2022/12/21 09:38:50;;;;;;;24.33;14.25;;;;;;;8.12;100.00;101040.63;4993257;28;20109;-64
2022/12/21 09:41:29;;;;;;;28.77;14.15;;;;;;;8.11;100.00;101036.34;4981650;28;20124;-64
2022/12/21 09:44:14;;;;;;;29.15;13.60;;;;;;;8.19;100.00;101041.75;4975881;28;20120;-64
2022/12/21 09:46:42;;;;;;;27.58;13.65;;;;;;;8.14;100.00;101032.66;4978021;28;20137;-65
2022/12/21 09:49:22;;;;;;;22.05;13.65;;;;;;;8.15;100.00;101026.47;4979759;28;20684;-66
2022/12/21 09:51:55;;;;;;;33.90;14.75;;;;;;;8.20;100.00;101026.94;4990650;28;20084;-65
2022/12/21 09:54:31;;;;;;;55.13;14.95;;;;;;;8.19;100.00;101028.69;4974728;28;20070;-65
2022/12/21 09:56:58;;;;;;;30.00;14.18;;;;;;;8.16;100.00;101030.75;4976864;28;20408;-65
2022/12/21 09:59:24;;;;;;;31.85;15.05;;;;;;;8.16;100.00;101034.19;4974786;28;20058;-65
2022/12/21 10:02:03;;;;;;;40.53;14.60;;;;;;;8.23;100.00;101040.56;4981490;28;20050;-64
2022/12/21 10:04:38;;;;;;;;;;;;;;;8.29;100.00;101045.28;4976036;28;20064;-65
2022/12/21 10:07:28;;;;;;;31.30;14.23;;;;;;;8.25;100.00;101036.06;4982727;28;19930;-66
2022/12/21 10:10:20;;;;;;;30.40;14.50;;;;;;;8.23;100.00;101039.72;4987659;28;20053;-66
2022/12/21 10:13:01;;;;;;;25.83;12.50;;;;;;;8.31;100.00;101029.47;4975047;28;20050;-66
2022/12/21 10:16:02;;;;;;;28.08;14.00;;;;;;;8.30;100.00;101026.03;4984603;28;20073;-64
2022/12/21 10:18:58;;;;;;;24.75;13.10;;;;;;;8.30;100.00;101033.88;4976173;28;20155;-64
2022/12/21 10:21:52;;;;;;;31.63;13.68;;;;;;;8.29;100.00;101021.78;4977239;28;20109;-66
2022/12/21 10:24:40;;;;;;;32.15;14.05;;;;;;;8.34;100.00;101021.38;4973903;28;20054;-66
2022/12/21 10:27:19;;;;;;;35.50;14.85;;;;;;;8.35;100.00;101028.28;4998191;28;20068;-66
2022/12/21 10:29:52;;;;;;;37.35;14.07;;;;;;;8.35;100.00;101028.28;4981521;28;20065;-65
2022/12/21 10:32:20;;;;;;;32.63;13.27;;;;;;;8.37;100.00;101025.53;4986765;28;20113;-65
2022/12/21 10:34:52;;;;;;;27.67;13.23;;;;;;;8.37;100.00;101020.28;4980253;28;20050;-66
2022/12/21 10:37:20;;;;;;;34.35;13.05;;;;;;;8.39;100.00;101021.84;4979142;28;20054;-65
2022/12/21 10:39:54;;;;;;;27.92;12.63;;;;;;;8.43;100.00;101020.66;4986629;28;20546;-65
2022/12/21 10:42:34;;;;;;;28.17;13.05;;;;;;;8.38;100.00;101020.16;4986153;28;20550;-65
2022/12/21 10:45:01;;;;;;;31.55;13.30;;;;;;;8.38;100.00;101014.94;4991164;28;20061;-65
2022/12/21 10:47:27;;;;;;;27.17;13.52;;;;;;;8.42;100.00;101013.75;4978022;28;20081;-66
2022/12/21 10:50:03;;;;;;;27.63;14.25;;;;;;;8.41;100.00;101021.69;4978963;28;20050;-65
2022/12/21 10:52:45;;;;;;;27.48;14.90;;;;;;;8.40;100.00;101022.66;4965972;28;20050;-65
2022/12/21 10:55:17;;;;;;;31.80;16.23;;;;;;;8.36;100.00;101014.25;4983561;28;20058;-65
2022/12/21 10:58:10;;;;;;;38.35;15.93;;;;;;;8.33;100.00;101017.13;4978426;28;20046;-65
2022/12/21 11:00:47;;;;;;;40.30;16.38;;;;;;;8.32;100.00;101012.84;4975975;28;20127;-65
2022/12/21 11:03:36;;;;;;;30.42;16.35;;;;;;;8.34;100.00;101016.16;4981553;28;20081;-66
2022/12/21 11:06:17;;;;;;;33.33;17.35;;;;;;;8.38;100.00;101014.94;4961368;28;20054;-65
2022/12/21 11:08:52;;;;;;;36.30;18.40;;;;;;;8.45;100.00;101004.84;4978979;28;20077;-66
2022/12/21 11:11:31;;;;;;;43.05;18.98;;;;;;;8.50;100.00;101000.88;4986320;28;20105;-66
2022/12/21 11:14:03;;;;;;;41.97;21.08;;;;;;;8.47;100.00;100992.47;4980466;28;20050;-66
2022/12/21 11:16:35;;;;;;;45.15;20.58;;;;;;;8.50;100.00;101000.06;4980129;28;20893;-66
2022/12/21 11:19:03;;;;;;;39.80;20.88;;;;;;;8.49;100.00;100994.00;4980894;28;20053;-65
2022/12/21 11:21:34;;;;;;;45.58;22.42;;;;;;;8.55;100.00;100992.66;4978387;28;20106;-65
2022/12/21 11:24:04;;;;;;;37.25;19.80;;;;;;;8.57;100.00;100990.75;4987807;28;20081;-65
2022/12/21 11:26:38;;;;;;;45.80;22.48;;;;;;;8.67;100.00;100996.84;4981820;28;20054;-66
2022/12/21 11:29:12;;;;;;;43.45;23.35;;;;;;;8.70;100.00;100995.75;4999111;28;20054;-64
2022/12/21 11:31:38;;;;;;;37.92;21.13;;;;;;;8.68;100.00;100995.06;4991921;28;20118;-66
2022/12/21 11:34:24;;;;;;;44.05;22.55;;;;;;;8.78;100.00;100992.50;4988614;28;20058;-66
2022/12/21 11:36:58;;;;;;;47.97;21.30;;;;;;;8.81;100.00;101000.91;4986778;28;20046;-66
2022/12/21 11:39:24;;;;;;;40.28;20.52;;;;;;;8.80;100.00;100999.28;4981741;28;20058;-65
2022/12/21 11:41:52;;;;;;;39.85;20.13;;;;;;;8.86;100.00;100995.28;4986987;28;20082;-65